Time;durP1;ratioP1;P1;durP2;ratioP2;P2;SDS_P1;SDS_P2;PMS_P1;PMS_P2;Temp;Humidity;BMP_temperature;BMP_pressure;BME280_temperature;BME280_humidity;BME280_pressure;Samples;Min_cycle;Max_cycle;Signal;HPM_P1;HPM_P2
2023/04/10 00:02:15;;;;;;;41.93;37.63;;;;;;;;;;5017996;28;20416;-84
2023/04/10 00:04:44;;;;;;;42.33;37.83;;;;;;;;;;5018061;28;20484;-84
2023/04/10 00:07:11;;;;;;;42.47;38.30;;;;;;;;;;5016964;28;20456;-84
2023/04/10 00:09:39;;;;;;;45.00;40.20;;;;;;;;;;5017781;28;20236;-83
2023/04/10 00:12:06;;;;;;;42.63;38.40;;;;;;;;;;5017858;28;20215;-84
2023/04/10 00:14:33;;;;;;;42.67;38.20;;;;;;;;;;5017674;28;20522;-84
2023/04/10 00:17:00;;;;;;;43.38;39.08;;;;;;;;;;5017366;28;20210;-84
2023/04/10 00:19:27;;;;;;;43.10;38.28;;;;;;;;;;5017568;28;20622;-84
2023/04/10 00:21:56;;;;;;;44.30;39.60;;;;;;;;;;5018019;28;20190;-84
2023/04/10 00:24:23;;;;;;;46.37;40.90;;;;;;;;;;5017887;28;20222;-84
2023/04/10 00:26:50;;;;;;;45.55;40.97;;;;;;;;;;5016836;28;20469;-83
2023/04/10 00:29:17;;;;;;;42.63;38.45;;;;;;;;;;5017395;28;20565;-84
2023/04/10 00:31:44;;;;;;;43.47;38.88;;;;;;;;;;5017717;28;20248;-83
2023/04/10 00:34:12;;;;;;;43.00;38.50;;;;;;;;;;5024696;28;20203;-83
2023/04/10 00:36:39;;;;;;;43.03;38.92;;;;;;;;;;5032477;28;20451;-84
2023/04/10 00:39:08;;;;;;;44.70;39.80;;;;;;;;;;5033062;28;20260;-83
2023/04/10 00:41:35;;;;;;;47.75;42.85;;;;;;;;;;5019838;28;20210;-83
2023/04/10 00:44:02;;;;;;;46.58;39.13;;;;;;;;;;5019188;28;20224;-84
2023/04/10 00:46:30;;;;;;;42.55;38.47;;;;;;;;;;5018463;28;20201;-83
2023/04/10 00:48:57;;;;;;;42.85;38.53;;;;;;;;;;5019816;28;20222;-84
2023/04/10 00:51:25;;;;;;;41.30;37.30;;;;;;;;;;5019709;28;20204;-84
2023/04/10 00:53:53;;;;;;;43.40;38.63;;;;;;;;;;5019357;28;20213;-84
2023/04/10 00:56:22;;;;;;;41.70;37.20;;;;;;;;;;5019011;28;20240;-84
2023/04/10 00:58:49;;;;;;;62.85;45.47;;;;;;;;;;5018477;28;20706;-84
2023/04/10 01:01:16;;;;;;;39.03;35.20;;;;;;;;;;5018788;28;20260;-83
2023/04/10 01:03:44;;;;;;;42.45;37.90;;;;;;;;;;5018420;28;20256;-84
2023/04/10 01:06:15;;;;;;;38.85;35.15;;;;;;;;;;5018055;28;20275;-84
2023/04/10 01:08:47;;;;;;;41.17;37.00;;;;;;;;;;5017236;28;20252;-84
2023/04/10 01:11:20;;;;;;;41.70;37.55;;;;;;;;;;5015184;28;20193;-83
2023/04/10 01:13:54;;;;;;;40.03;36.10;;;;;;;;;;5014962;28;20214;-84
2023/04/10 01:16:24;;;;;;;40.58;36.67;;;;;;;;;;5014151;28;20626;-84
2023/04/10 01:18:55;;;;;;;41.08;37.08;;;;;;;;;;5015323;28;20713;-83
2023/04/10 01:21:23;;;;;;;39.50;35.47;;;;;;;;;;5014787;28;20213;-84
2023/04/10 01:23:55;;;;;;;39.50;35.50;;;;;;;;;;5014790;28;20232;-83
2023/04/10 01:26:30;;;;;;;41.90;37.78;;;;;;;;;;5014555;28;20226;-83
2023/04/10 01:29:00;;;;;;;38.55;34.85;;;;;;;;;;5015421;28;20279;-83
2023/04/10 01:31:40;;;;;;;40.42;36.28;;;;;;;;;;5015039;28;20186;-83
2023/04/10 01:34:08;;;;;;;39.67;35.72;;;;;;;;;;5015573;28;20262;-83
2023/04/10 01:36:38;;;;;;;40.10;36.15;;;;;;;;;;5014853;28;20205;-84
2023/04/10 01:39:06;;;;;;;40.90;37.08;;;;;;;;;;5015602;28;20284;-84
2023/04/10 01:41:33;;;;;;;42.13;38.05;;;;;;;;;;5015471;28;20198;-84
2023/04/10 01:44:03;;;;;;;40.33;36.15;;;;;;;;;;5015419;28;20225;-84
2023/04/10 01:46:31;;;;;;;39.10;35.22;;;;;;;;;;5015405;28;20216;-84
2023/04/10 01:49:01;;;;;;;40.15;35.95;;;;;;;;;;5015554;28;20280;-84
2023/04/10 01:51:28;;;;;;;38.05;34.33;;;;;;;;;;5015934;28;20216;-83
2023/04/10 01:53:55;;;;;;;39.58;35.70;;;;;;;;;;5017121;28;20285;-83
2023/04/10 01:56:22;;;;;;;38.80;35.03;;;;;;;;;;5019853;28;20205;-84
2023/04/10 01:58:50;;;;;;;38.03;34.22;;;;;;;;;;5019571;28;20278;-84
2023/04/10 02:01:20;;;;;;;41.15;37.00;;;;;;;;;;5019404;28;20201;-84
2023/04/10 02:03:47;;;;;;;38.92;35.20;;;;;;;;;;5018935;28;20199;-83
2023/04/10 02:06:16;;;;;;;37.08;33.67;;;;;;;;;;5018170;28;20286;-84
2023/04/10 02:08:48;;;;;;;37.42;33.70;;;;;;;;;;5019048;28;20700;-84
2023/04/10 02:11:18;;;;;;;37.47;33.92;;;;;;;;;;5018474;28;20187;-83
2023/04/10 02:13:46;;;;;;;35.35;32.05;;;;;;;;;;5019185;28;20266;-84
2023/04/10 02:16:16;;;;;;;39.78;35.85;;;;;;;;;;5018625;28;20206;-84
2023/04/10 02:18:45;;;;;;;35.85;32.50;;;;;;;;;;5019674;28;20229;-84
2023/04/10 02:21:12;;;;;;;37.47;33.78;;;;;;;;;;5021291;28;20212;-83
2023/04/10 02:23:39;;;;;;;38.92;35.35;;;;;;;;;;5020617;28;20213;-84
2023/04/10 02:26:07;;;;;;;36.72;33.47;;;;;;;;;;5019694;28;20267;-83
2023/04/10 02:28:34;;;;;;;34.88;31.63;;;;;;;;;;5019884;28;20229;-84
2023/04/10 02:31:01;;;;;;;37.67;33.65;;;;;;;;;;5018789;28;20336;-84
2023/04/10 02:33:28;;;;;;;35.53;32.08;;;;;;;;;;5018633;28;20209;-84
2023/04/10 02:35:56;;;;;;;36.88;33.47;;;;;;;;;;5018561;28;20201;-84
2023/04/10 02:38:23;;;;;;;36.78;32.88;;;;;;;;;;5020218;28;20233;-83
2023/04/10 02:40:50;;;;;;;38.08;34.15;;;;;;;;;;5018340;28;20257;-83
2023/04/10 02:43:17;;;;;;;36.08;32.28;;;;;;;;;;5018416;28;20254;-84
2023/04/10 02:45:44;;;;;;;35.05;31.58;;;;;;;;;;5017740;28;20279;-84
2023/04/10 02:48:11;;;;;;;37.60;33.85;;;;;;;;;;5018041;28;20768;-84
2023/04/10 02:50:39;;;;;;;36.83;33.45;;;;;;;;;;5017598;28;20214;-82
2023/04/10 02:53:08;;;;;;;35.55;32.03;;;;;;;;;;5018069;28;20220;-84
2023/04/10 02:55:36;;;;;;;37.55;34.05;;;;;;;;;;5017381;28;20226;-84
2023/04/10 02:58:03;;;;;;;37.60;33.70;;;;;;;;;;5018067;28;20202;-84
2023/04/10 03:00:29;;;;;;;34.92;31.52;;;;;;;;;;5018054;28;20202;-84
2023/04/10 03:02:56;;;;;;;37.80;33.93;;;;;;;;;;5018099;28;20550;-84
2023/04/10 03:05:23;;;;;;;35.15;31.90;;;;;;;;;;5017991;28;20492;-84
2023/04/10 03:07:52;;;;;;;35.05;31.77;;;;;;;;;;5017592;28;20260;-84
2023/04/10 03:10:23;;;;;;;52.25;38.95;;;;;;;;;;5018898;28;20654;-84
2023/04/10 03:12:50;;;;;;;35.25;32.00;;;;;;;;;;5019137;28;20545;-84
2023/04/10 03:15:17;;;;;;;36.53;32.65;;;;;;;;;;5019174;28;20205;-83
2023/04/10 03:17:44;;;;;;;36.17;32.97;;;;;;;;;;5018009;28;20205;-84
2023/04/10 03:20:12;;;;;;;37.30;33.28;;;;;;;;;;5018095;28;20275;-83
2023/04/10 03:22:39;;;;;;;35.75;32.15;;;;;;;;;;5018359;28;20209;-83
2023/04/10 03:25:07;;;;;;;34.78;31.48;;;;;;;;;;5018880;28;20253;-83
2023/04/10 03:27:35;;;;;;;35.00;31.63;;;;;;;;;;5017724;28;20205;-84
2023/04/10 03:30:02;;;;;;;32.90;29.80;;;;;;;;;;5018113;28;20275;-84
2023/04/10 03:32:30;;;;;;;33.40;30.20;;;;;;;;;;5018629;28;20247;-84
2023/04/10 03:34:58;;;;;;;318.15;104.53;;;;;;;;;;5018068;28;20677;-84
2023/04/10 03:37:26;;;;;;;32.42;29.55;;;;;;;;;;5017926;28;20571;-83
2023/04/10 03:39:56;;;;;;;32.67;29.67;;;;;;;;;;5018951;28;20230;-84
2023/04/10 03:42:23;;;;;;;33.42;30.48;;;;;;;;;;5018331;28;20209;-84
2023/04/10 03:44:51;;;;;;;33.92;31.00;;;;;;;;;;5017867;28;20236;-83
2023/04/10 03:47:19;;;;;;;32.35;29.45;;;;;;;;;;5017076;28;20239;-84
2023/04/10 03:49:45;;;;;;;33.45;30.45;;;;;;;;;;5017824;28;20235;-84
2023/04/10 03:52:12;;;;;;;33.08;30.00;;;;;;;;;;5017484;28;20666;-84
2023/04/10 03:54:39;;;;;;;34.15;31.10;;;;;;;;;;5017568;28;20255;-84
2023/04/10 03:57:06;;;;;;;31.58;28.88;;;;;;;;;;5017363;28;20213;-84
2023/04/10 03:59:35;;;;;;;32.63;29.73;;;;;;;;;;5017625;28;20252;-84
2023/04/10 04:02:03;;;;;;;33.92;30.75;;;;;;;;;;5018332;28;20192;-84
2023/04/10 04:04:31;;;;;;;33.42;30.52;;;;;;;;;;5017182;28;20215;-84
2023/04/10 04:06:58;;;;;;;33.58;30.30;;;;;;;;;;5017376;28;20232;-84
2023/04/10 04:09:25;;;;;;;32.85;30.00;;;;;;;;;;5017972;28;20233;-84
2023/04/10 04:11:52;;;;;;;32.83;29.77;;;;;;;;;;5017785;28;20611;-84
2023/04/10 04:14:19;;;;;;;35.33;32.05;;;;;;;;;;5017339;28;20208;-83
2023/04/10 04:16:46;;;;;;;32.78;29.90;;;;;;;;;;5016511;28;20563;-84
2023/04/10 04:19:14;;;;;;;32.35;29.27;;;;;;;;;;5016510;28;20311;-84
2023/04/10 04:21:41;;;;;;;33.03;30.00;;;;;;;;;;5017307;28;20194;-83
2023/04/10 04:24:08;;;;;;;32.92;29.60;;;;;;;;;;5017729;28;20209;-83
2023/04/10 04:26:35;;;;;;;33.80;30.52;;;;;;;;;;5016480;28;20697;-83
2023/04/10 04:29:02;;;;;;;32.40;29.60;;;;;;;;;;5017425;28;20275;-84
2023/04/10 04:31:31;;;;;;;33.58;30.40;;;;;;;;;;5017438;28;20556;-84
2023/04/10 04:33:58;;;;;;;32.60;29.60;;;;;;;;;;5017507;28;20646;-84
2023/04/10 04:36:27;;;;;;;33.20;30.30;;;;;;;;;;5016474;28;20204;-84
2023/04/10 04:38:54;;;;;;;33.88;30.92;;;;;;;;;;5016977;28;20284;-84
2023/04/10 04:41:21;;;;;;;34.15;31.17;;;;;;;;;;5017332;28;20235;-81
2023/04/10 04:43:48;;;;;;;34.13;31.02;;;;;;;;;;5016608;28;20267;-80
2023/04/10 04:46:15;;;;;;;32.97;29.77;;;;;;;;;;5015622;28;20221;-80
2023/04/10 04:48:42;;;;;;;34.25;31.13;;;;;;;;;;5019942;28;20224;-80
2023/04/10 04:51:09;;;;;;;34.00;30.70;;;;;;;;;;5038131;28;20188;-80
2023/04/10 04:53:37;;;;;;;383.73;122.35;;;;;;;;;;5037771;28;20216;-80
2023/04/10 04:56:04;;;;;;;32.53;29.60;;;;;;;;;;5024409;28;20210;-80
2023/04/10 04:58:31;;;;;;;33.80;30.60;;;;;;;;;;5019831;28;20236;-80
2023/04/10 05:00:59;;;;;;;33.22;30.15;;;;;;;;;;5019450;28;20736;-80
2023/04/10 05:03:27;;;;;;;33.55;30.25;;;;;;;;;;5018670;28;20206;-80
2023/04/10 05:05:54;;;;;;;32.72;29.45;;;;;;;;;;5018861;28;20295;-80
2023/04/10 05:08:21;;;;;;;32.28;29.40;;;;;;;;;;5018652;28;20264;-80
2023/04/10 05:10:50;;;;;;;31.92;29.02;;;;;;;;;;5018426;28;20208;-80
2023/04/10 05:13:17;;;;;;;31.73;28.83;;;;;;;;;;5018348;28;20209;-81
2023/04/10 05:15:44;;;;;;;31.65;28.90;;;;;;;;;;5018057;28;20243;-79
2023/04/10 05:18:12;;;;;;;31.37;28.73;;;;;;;;;;5018115;28;20635;-80
2023/04/10 05:20:39;;;;;;;31.45;28.55;;;;;;;;;;5017527;28;20443;-80
2023/04/10 05:23:06;;;;;;;33.45;30.42;;;;;;;;;;5017438;28;20245;-80
2023/04/10 05:25:33;;;;;;;34.03;30.97;;;;;;;;;;5017312;28;20222;-81
2023/04/10 05:28:01;;;;;;;32.90;29.80;;;;;;;;;;5016993;28;20427;-80
2023/04/10 05:30:29;;;;;;;33.13;29.98;;;;;;;;;;5017286;28;20804;-80
2023/04/10 05:32:56;;;;;;;244.93;84.05;;;;;;;;;;5017014;28;20207;-80
2023/04/10 05:35:23;;;;;;;29.75;27.35;;;;;;;;;;5017105;28;20205;-80
2023/04/10 05:37:50;;;;;;;31.73;28.83;;;;;;;;;;5016456;28;20202;-80
2023/04/10 05:40:17;;;;;;;31.10;28.47;;;;;;;;;;5016812;28;20212;-80
2023/04/10 05:42:45;;;;;;;29.73;27.15;;;;;;;;;;5016797;28;20437;-80
2023/04/10 05:45:13;;;;;;;31.60;28.90;;;;;;;;;;5016698;28;20202;-80
2023/04/10 05:47:40;;;;;;;27.10;24.80;;;;;;;;;;5016319;28;20560;-80
2023/04/10 05:50:08;;;;;;;28.63;26.23;;;;;;;;;;5016343;28;20218;-80
2023/04/10 05:52:35;;;;;;;28.38;25.95;;;;;;;;;;5016844;28;20847;-80
2023/04/10 05:55:02;;;;;;;28.30;26.10;;;;;;;;;;5016701;28;20201;-80
2023/04/10 05:57:29;;;;;;;27.57;25.37;;;;;;;;;;5015978;28;20213;-80
2023/04/10 05:59:57;;;;;;;29.23;27.03;;;;;;;;;;5016107;28;20965;-80
2023/04/10 06:02:26;;;;;;;29.60;27.10;;;;;;;;;;5016706;28;20462;-80
2023/04/10 06:04:53;;;;;;;28.80;26.50;;;;;;;;;;5017972;28;20205;-80
2023/04/10 06:07:20;;;;;;;28.43;26.23;;;;;;;;;;5017263;28;20225;-80
2023/04/10 06:09:47;;;;;;;28.37;26.23;;;;;;;;;;5017726;28;20472;-80
2023/04/10 06:12:14;;;;;;;27.60;25.40;;;;;;;;;;5017405;28;20841;-80
2023/04/10 06:14:41;;;;;;;28.27;26.00;;;;;;;;;;5016823;28;20423;-81
2023/04/10 06:17:08;;;;;;;26.37;24.47;;;;;;;;;;5016669;28;20445;-80
2023/04/10 06:19:37;;;;;;;29.03;26.63;;;;;;;;;;5016765;28;20442;-80
2023/04/10 06:22:04;;;;;;;27.90;25.73;;;;;;;;;;5016877;28;20459;-80
2023/04/10 06:24:31;;;;;;;30.13;27.73;;;;;;;;;;5016925;28;20427;-80
2023/04/10 06:26:58;;;;;;;27.20;25.20;;;;;;;;;;5016075;28;20686;-80
2023/04/10 06:29:25;;;;;;;28.87;26.57;;;;;;;;;;5016594;28;20237;-80
2023/04/10 06:31:52;;;;;;;30.93;28.60;;;;;;;;;;5016812;28;20479;-80
2023/04/10 06:34:19;;;;;;;30.63;28.20;;;;;;;;;;5016642;28;20434;-80
2023/04/10 06:36:48;;;;;;;27.77;25.57;;;;;;;;;;5015880;28;20462;-81
2023/04/10 06:39:16;;;;;;;27.90;25.90;;;;;;;;;;5015559;28;20455;-80
2023/04/10 06:41:43;;;;;;;29.03;26.80;;;;;;;;;;5018929;28;20244;-80
2023/04/10 06:44:10;;;;;;;29.27;27.07;;;;;;;;;;5020211;28;20452;-80
2023/04/10 06:46:37;;;;;;;29.00;27.00;;;;;;;;;;5018686;28;21023;-80
2023/04/10 06:49:04;;;;;;;26.40;24.40;;;;;;;;;;5019572;28;20497;-80
2023/04/10 06:51:31;;;;;;;27.87;25.87;;;;;;;;;;5019001;28;20480;-80
2023/04/10 06:53:59;;;;;;;27.00;24.90;;;;;;;;;;5019322;28;20934;-80
2023/04/10 06:56:26;;;;;;;27.67;25.57;;;;;;;;;;5018826;28;20423;-80
2023/04/10 06:58:53;;;;;;;28.23;26.13;;;;;;;;;;5018907;28;20478;-80
2023/04/10 07:01:20;;;;;;;28.77;26.60;;;;;;;;;;5018917;28;20411;-80
2023/04/10 07:03:47;;;;;;;30.50;28.00;;;;;;;;;;5019256;28;20456;-80
2023/04/10 07:06:14;;;;;;;28.30;26.20;;;;;;;;;;5018185;28;20607;-80
2023/04/10 07:08:41;;;;;;;29.17;26.97;;;;;;;;;;5018496;28;20468;-80
2023/04/10 07:11:10;;;;;;;29.50;27.30;;;;;;;;;;5019306;28;20427;-80
2023/04/10 07:13:38;;;;;;;28.83;26.50;;;;;;;;;;5019168;28;20424;-79
2023/04/10 07:16:07;;;;;;;30.67;28.27;;;;;;;;;;5018101;28;20517;-78
2023/04/10 07:18:34;;;;;;;29.50;27.43;;;;;;;;;;5017895;28;20455;-80
2023/04/10 07:21:01;;;;;;;26.10;24.23;;;;;;;;;;5018154;28;20435;-79
2023/04/10 07:23:28;;;;;;;31.40;29.10;;;;;;;;;;5018309;28;20459;-80
2023/04/10 07:25:57;;;;;;;32.27;29.77;;;;;;;;;;5017395;28;20443;-80
2023/04/10 07:28:25;;;;;;;29.03;26.93;;;;;;;;;;5017755;28;20446;-80
2023/04/10 07:30:52;;;;;;;28.70;26.60;;;;;;;;;;5018381;28;20458;-79
2023/04/10 07:33:19;;;;;;;27.70;25.70;;;;;;;;;;5017134;28;20867;-79
2023/04/10 07:35:46;;;;;;;28.77;26.63;;;;;;;;;;5016426;28;20463;-80
2023/04/10 07:38:13;;;;;;;31.00;28.73;;;;;;;;;;5016448;28;20472;-80
2023/04/10 07:40:40;;;;;;;30.30;28.10;;;;;;;;;;5017097;28;20430;-80
2023/04/10 07:43:07;;;;;;;31.93;29.53;;;;;;;;;;5016911;28;20498;-80
2023/04/10 07:45:35;;;;;;;29.80;27.70;;;;;;;;;;5015765;28;20471;-81
2023/04/10 07:48:05;;;;;;;30.83;28.40;;;;;;;;;;5016279;28;20492;-80
2023/04/10 07:50:31;;;;;;;30.83;28.60;;;;;;;;;;5015584;28;20430;-80
2023/04/10 07:53:02;;;;;;;30.77;28.50;;;;;;;;;;5015432;28;20452;-79
2023/04/10 07:55:29;;;;;;;29.57;27.57;;;;;;;;;;5015847;28;20470;-80
2023/04/10 07:57:56;;;;;;;30.40;28.20;;;;;;;;;;5015397;28;20517;-80
2023/04/10 08:00:23;;;;;;;28.10;26.10;;;;;;;;;;5016043;28;20503;-80
2023/04/10 08:02:52;;;;;;;25.83;23.93;;;;;;;;;;5015867;28;20444;-80
2023/04/10 08:05:19;;;;;;;28.13;26.20;;;;;;;;;;5015262;28;20416;-79
2023/04/10 08:07:46;;;;;;;30.10;27.87;;;;;;;;;;5014877;28;20467;-79
2023/04/10 08:10:13;;;;;;;30.20;28.00;;;;;;;;;;5014897;28;20441;-79
2023/04/10 08:12:40;;;;;;;30.60;28.50;;;;;;;;;;5015437;28;20462;-80
2023/04/10 08:15:08;;;;;;;31.33;29.13;;;;;;;;;;5015193;28;20427;-80
2023/04/10 08:17:35;;;;;;;29.57;27.53;;;;;;;;;;5014673;28;20429;-80
2023/04/10 08:20:03;;;;;;;29.83;27.63;;;;;;;;;;5014338;28;20521;-79
2023/04/10 08:22:30;;;;;;;29.00;26.90;;;;;;;;;;5015350;28;20775;-79
2023/04/10 08:24:57;;;;;;;30.30;28.20;;;;;;;;;;5015306;28;20592;-80
2023/04/10 08:27:24;;;;;;;28.47;26.53;;;;;;;;;;5014170;28;20488;-80
2023/04/10 08:29:51;;;;;;;26.90;25.10;;;;;;;;;;5014782;28;20455;-79
2023/04/10 08:32:18;;;;;;;29.07;26.77;;;;;;;;;;5015137;28;20431;-79
2023/04/10 08:34:45;;;;;;;28.63;26.40;;;;;;;;;;5015076;28;20919;-79
2023/04/10 08:37:14;;;;;;;29.47;27.27;;;;;;;;;;5014252;28;20831;-80
2023/04/10 08:39:42;;;;;;;29.30;27.00;;;;;;;;;;5014756;28;20454;-80
2023/04/10 08:42:08;;;;;;;30.50;28.20;;;;;;;;;;5014522;28;21172;-80
2023/04/10 08:44:36;;;;;;;26.43;24.53;;;;;;;;;;5014760;28;20515;-80
2023/04/10 08:47:04;;;;;;;29.40;27.20;;;;;;;;;;5014034;28;20460;-80
2023/04/10 08:49:38;;;;;;;28.63;26.57;;;;;;;;;;5014271;28;20532;-80
2023/04/10 08:52:07;;;;;;;30.73;28.33;;;;;;;;;;5014306;28;20451;-80
2023/04/10 08:54:38;;;;;;;29.50;27.30;;;;;;;;;;5014377;28;20424;-80
2023/04/10 08:57:07;;;;;;;30.80;28.50;;;;;;;;;;5014063;28;20487;-80
2023/04/10 08:59:34;;;;;;;29.70;27.43;;;;;;;;;;5014570;28;20515;-80
2023/04/10 09:02:01;;;;;;;29.40;27.33;;;;;;;;;;5014563;28;20431;-80
2023/04/10 09:04:28;;;;;;;31.43;29.10;;;;;;;;;;5014108;28;20431;-80
2023/04/10 09:06:55;;;;;;;30.27;28.03;;;;;;;;;;5019253;28;20455;-80
2023/04/10 09:09:22;;;;;;;30.73;28.43;;;;;;;;;;5032878;28;20451;-80
2023/04/10 09:12:05;;;;;;;32.00;29.53;;;;;;;;;;5035134;28;20427;-80
2023/04/10 09:14:33;;;;;;;31.47;29.07;;;;;;;;;;5018531;28;20773;-80
2023/04/10 09:17:13;;;;;;;30.40;27.90;;;;;;;;;;5017148;28;20978;-80
2023/04/10 09:19:41;;;;;;;30.90;28.60;;;;;;;;;;5016625;28;20459;-80
2023/04/10 09:22:08;;;;;;;28.77;26.70;;;;;;;;;;5016562;28;20485;-80
2023/04/10 09:24:39;;;;;;;28.27;26.17;;;;;;;;;;5016423;28;20453;-79
2023/04/10 09:27:07;;;;;;;26.20;24.47;;;;;;;;;;5016168;28;20463;-80
2023/04/10 09:29:42;;;;;;;30.47;28.17;;;;;;;;;;5014377;28;20515;-80
2023/04/10 09:32:09;;;;;;;29.07;27.00;;;;;;;;;;5013793;28;20430;-79
2023/04/10 09:34:51;;;;;;;29.33;27.23;;;;;;;;;;5013802;28;20457;-79
2023/04/10 09:37:19;;;;;;;26.13;24.40;;;;;;;;;;5013657;28;20432;-80
2023/04/10 09:39:46;;;;;;;28.13;26.13;;;;;;;;;;5013352;28;20901;-80
2023/04/10 09:42:15;;;;;;;29.20;27.10;;;;;;;;;;5013816;28;20468;-80
2023/04/10 09:44:42;;;;;;;30.00;27.90;;;;;;;;;;5013377;28;20903;-80
2023/04/10 09:47:16;;;;;;;29.80;27.77;;;;;;;;;;5013116;28;20538;-80
2023/04/10 09:49:45;;;;;;;29.73;27.67;;;;;;;;;;5014425;28;20519;-80
2023/04/10 09:52:18;;;;;;;28.80;26.67;;;;;;;;;;5013894;28;20933;-79
2023/04/10 09:54:45;;;;;;;30.50;28.30;;;;;;;;;;5016214;28;20417;-80
2023/04/10 09:57:13;;;;;;;28.70;26.60;;;;;;;;;;5013441;28;20459;-80
2023/04/10 09:59:45;;;;;;;26.77;24.80;;;;;;;;;;5014300;28;20446;-80
2023/04/10 10:02:13;;;;;;;27.40;25.50;;;;;;;;;;5013772;28;20536;-80
2023/04/10 10:04:42;;;;;;;26.53;24.73;;;;;;;;;;5013951;28;20457;-80
2023/04/10 10:07:10;;;;;;;26.80;25.00;;;;;;;;;;5012998;28;20509;-80
2023/04/10 10:09:37;;;;;;;27.30;25.40;;;;;;;;;;5013919;28;20563;-80
2023/04/10 10:12:05;;;;;;;26.37;24.57;;;;;;;;;;5014272;28;20492;-80
2023/04/10 10:14:35;;;;;;;29.57;27.57;;;;;;;;;;5014857;28;20469;-80
2023/04/10 10:17:06;;;;;;;28.50;26.77;;;;;;;;;;5017984;28;20489;-80
2023/04/10 10:19:39;;;;;;;26.73;25.03;;;;;;;;;;5017847;28;20476;-79
2023/04/10 10:22:07;;;;;;;28.67;26.67;;;;;;;;;;5017548;28;20956;-80
2023/04/10 10:24:36;;;;;;;26.30;24.70;;;;;;;;;;5019412;28;20481;-80
2023/04/10 10:27:05;;;;;;;27.73;26.10;;;;;;;;;;5018435;28;20492;-80
2023/04/10 10:29:33;;;;;;;29.60;27.60;;;;;;;;;;5017970;28;20480;-80
2023/04/10 10:32:01;;;;;;;31.53;29.53;;;;;;;;;;5020135;28;20435;-81
2023/04/10 10:34:30;;;;;;;28.00;26.10;;;;;;;;;;5023645;28;20426;-80
2023/04/10 10:36:58;;;;;;;29.57;27.63;;;;;;;;;;5022388;28;20423;-81
2023/04/10 10:39:29;;;;;;;29.33;27.43;;;;;;;;;;5023159;28;20466;-81
2023/04/10 10:42:01;;;;;;;28.30;26.27;;;;;;;;;;5022260;28;20459;-80
2023/04/10 10:44:32;;;;;;;29.43;27.50;;;;;;;;;;5022155;28;20407;-81
2023/04/10 10:47:05;;;;;;;31.03;29.03;;;;;;;;;;5021387;28;20391;-81
2023/04/10 10:49:53;;;;;;;28.23;26.37;;;;;;;;;;5021687;28;20466;-80
2023/04/10 10:52:35;;;;;;;27.87;26.00;;;;;;;;;;5021500;28;20471;-81
2023/04/10 10:55:30;;;;;;;28.87;26.97;;;;;;;;;;5021043;28;20468;-80
2023/04/10 10:57:58;;;;;;;28.40;26.60;;;;;;;;;;5021123;28;20457;-80
2023/04/10 11:00:25;;;;;;;28.53;26.63;;;;;;;;;;5019891;28;20941;-80
2023/04/10 11:03:07;;;;;;;25.70;23.80;;;;;;;;;;5019082;28;20454;-80
2023/04/10 11:05:51;;;;;;;30.03;27.93;;;;;;;;;;5016566;28;20457;-80
2023/04/10 11:08:18;;;;;;;27.60;25.80;;;;;;;;;;5019870;28;20525;-80
2023/04/10 11:11:00;;;;;;;28.30;26.47;;;;;;;;;;5019794;28;20431;-80
2023/04/10 11:13:27;;;;;;;28.77;26.87;;;;;;;;;;5019744;28;20422;-80
2023/04/10 11:15:55;;;;;;;28.50;26.50;;;;;;;;;;5018690;28;20472;-81
2023/04/10 11:18:51;;;;;;;26.50;24.70;;;;;;;;;;5018949;28;20479;-80
2023/04/10 11:21:21;;;;;;;25.57;23.97;;;;;;;;;;5018718;28;20460;-80
2023/04/10 11:24:02;;;;;;;28.03;26.20;;;;;;;;;;5019268;28;20416;-80
2023/04/10 11:26:40;;;;;;;28.93;27.10;;;;;;;;;;5017598;28;20443;-80
2023/04/10 11:29:07;;;;;;;29.27;27.27;;;;;;;;;;5018228;28;20462;-80
2023/04/10 11:31:34;;;;;;;26.53;24.83;;;;;;;;;;5018856;28;20427;-80
2023/04/10 11:34:02;;;;;;;29.27;27.47;;;;;;;;;;5018119;28;20852;-80
2023/04/10 11:36:32;;;;;;;28.07;26.27;;;;;;;;;;5017370;28;20489;-79
2023/04/10 11:38:59;;;;;;;26.90;25.30;;;;;;;;;;5018167;28;20471;-80
2023/04/10 11:41:29;;;;;;;27.27;25.57;;;;;;;;;;5017110;28;20938;-80
2023/04/10 11:43:56;;;;;;;27.83;26.03;;;;;;;;;;5017545;28;20423;-80
2023/04/10 11:46:23;;;;;;;28.00;26.00;;;;;;;;;;5017083;28;20423;-80
2023/04/10 11:48:53;;;;;;;28.10;26.40;;;;;;;;;;5017245;28;20954;-80
2023/04/10 11:51:20;;;;;;;28.30;26.53;;;;;;;;;;5017376;28;20454;-80
2023/04/10 11:53:48;;;;;;;28.83;26.90;;;;;;;;;;5017753;28;20427;-80
2023/04/10 11:56:16;;;;;;;28.87;27.17;;;;;;;;;;5016635;28;20511;-80
2023/04/10 11:58:43;;;;;;;27.53;25.83;;;;;;;;;;5017153;28;20818;-80
2023/04/10 12:01:13;;;;;;;27.57;25.77;;;;;;;;;;5016899;28;20547;-80
2023/04/10 12:03:41;;;;;;;26.20;24.47;;;;;;;;;;5016697;28;20434;-80
2023/04/10 12:06:09;;;;;;;25.90;24.30;;;;;;;;;;5015845;28;20461;-80
2023/04/10 12:08:37;;;;;;;27.07;25.27;;;;;;;;;;5016699;28;20466;-80
2023/04/10 12:11:06;;;;;;;24.77;23.17;;;;;;;;;;5016932;28;21121;-80
2023/04/10 12:13:33;;;;;;;26.40;24.80;;;;;;;;;;5016801;28;20491;-80
2023/04/10 12:16:01;;;;;;;26.83;25.13;;;;;;;;;;5016105;28;20515;-81
2023/04/10 12:18:28;;;;;;;27.30;25.50;;;;;;;;;;5016339;28;20473;-80
2023/04/10 12:20:56;;;;;;;26.43;24.73;;;;;;;;;;5016873;28;20882;-80
2023/04/10 12:23:23;;;;;;;24.53;23.03;;;;;;;;;;5016598;28;20427;-80
2023/04/10 12:25:50;;;;;;;25.20;23.57;;;;;;;;;;5015887;28;20534;-80
2023/04/10 12:28:19;;;;;;;25.60;24.00;;;;;;;;;;5016089;28;20517;-80
2023/04/10 12:30:47;;;;;;;26.87;25.27;;;;;;;;;;5016414;28;20427;-80
2023/04/10 12:33:15;;;;;;;24.60;23.13;;;;;;;;;;5015930;28;20420;-80
2023/04/10 12:35:42;;;;;;;26.43;24.57;;;;;;;;;;5015889;28;20435;-80
2023/04/10 12:38:09;;;;;;;27.20;25.40;;;;;;;;;;5015172;28;20470;-80
2023/04/10 12:40:37;;;;;;;25.60;24.00;;;;;;;;;;5019030;28;20503;-80
2023/04/10 12:43:04;;;;;;;25.60;24.00;;;;;;;;;;5020388;28;20439;-80
2023/04/10 12:45:45;;;;;;;24.60;23.10;;;;;;;;;;5019488;28;20451;-80
2023/04/10 12:48:12;;;;;;;24.77;23.20;;;;;;;;;;5019503;28;20480;-80
2023/04/10 12:50:48;;;;;;;25.13;23.53;;;;;;;;;;5019085;28;20468;-80
2023/04/10 12:53:15;;;;;;;26.53;24.27;;;;;;;;;;5019664;28;20428;-80
2023/04/10 12:55:42;;;;;;;24.03;22.13;;;;;;;;;;5018343;28;20427;-80
2023/04/10 12:58:20;;;;;;;25.13;23.63;;;;;;;;;;5019562;28;20469;-80
2023/04/10 13:00:48;;;;;;;25.20;23.70;;;;;;;;;;5017714;28;20487;-81
2023/04/10 13:03:15;;;;;;;24.77;23.17;;;;;;;;;;5016004;28;20449;-80
2023/04/10 13:05:42;;;;;;;25.50;24.00;;;;;;;;;;5014784;28;20431;-80
2023/04/10 13:08:09;;;;;;;25.70;24.17;;;;;;;;;;5015315;28;20493;-79
2023/04/10 13:10:37;;;;;;;25.30;23.70;;;;;;;;;;5015417;28;20453;-80
2023/04/10 13:13:05;;;;;;;25.87;24.27;;;;;;;;;;5015647;28;20488;-80
2023/04/10 13:15:33;;;;;;;24.77;23.27;;;;;;;;;;5014597;28;20544;-80
2023/04/10 13:18:01;;;;;;;26.17;24.43;;;;;;;;;;5014989;28;20452;-79
2023/04/10 13:20:28;;;;;;;25.37;23.87;;;;;;;;;;5015053;28;20457;-80
2023/04/10 13:22:55;;;;;;;24.70;23.20;;;;;;;;;;5015071;28;21191;-81
2023/04/10 13:25:22;;;;;;;25.20;23.67;;;;;;;;;;5015217;28;20430;-80
2023/04/10 13:27:49;;;;;;;25.43;23.93;;;;;;;;;;5026228;28;21078;-80
2023/04/10 13:30:16;;;;;;;25.77;24.07;;;;;;;;;;5032020;28;20428;-79
2023/04/10 13:32:43;;;;;;;26.03;24.37;;;;;;;;;;5029939;28;20490;-80
2023/04/10 13:35:12;;;;;;;26.57;24.97;;;;;;;;;;5017201;28;20419;-80
2023/04/10 13:37:39;;;;;;;26.50;24.90;;;;;;;;;;5016610;28;20458;-79
2023/04/10 13:40:07;;;;;;;25.63;24.13;;;;;;;;;;5016606;28;20468;-81
2023/04/10 13:42:34;;;;;;;23.60;22.20;;;;;;;;;;5016466;28;20461;-80
2023/04/10 13:45:01;;;;;;;25.00;23.47;;;;;;;;;;5016759;28;20428;-80
2023/04/10 13:47:28;;;;;;;27.37;25.47;;;;;;;;;;5015811;28;20995;-80
2023/04/10 13:49:55;;;;;;;25.90;24.20;;;;;;;;;;5018968;28;20826;-80
2023/04/10 13:52:24;;;;;;;25.77;24.27;;;;;;;;;;5023401;28;20431;-80
2023/04/10 13:54:51;;;;;;;25.97;24.40;;;;;;;;;;5022764;28;20436;-80
2023/04/10 13:57:18;;;;;;;25.07;23.57;;;;;;;;;;5022218;28;20428;-80
2023/04/10 13:59:45;;;;;;;25.97;24.37;;;;;;;;;;5022214;28;20551;-80
2023/04/10 14:02:12;;;;;;;25.10;23.60;;;;;;;;;;5022871;28;20452;-80
2023/04/10 14:04:39;;;;;;;25.00;23.50;;;;;;;;;;5022292;28;20434;-80
2023/04/10 14:07:07;;;;;;;25.17;23.57;;;;;;;;;;5021999;28;20445;-81
2023/04/10 14:09:35;;;;;;;25.60;24.10;;;;;;;;;;5021438;28;20919;-80
2023/04/10 14:12:02;;;;;;;25.67;24.17;;;;;;;;;;5022608;28;20511;-80
2023/04/10 14:14:29;;;;;;;24.57;23.13;;;;;;;;;;5022066;28;20423;-80
2023/04/10 14:16:56;;;;;;;26.13;24.53;;;;;;;;;;5021546;28;20959;-80
2023/04/10 14:19:23;;;;;;;26.77;25.20;;;;;;;;;;5021762;28;20472;-80
2023/04/10 14:21:50;;;;;;;26.17;24.57;;;;;;;;;;5022515;28;20969;-80
2023/04/10 14:24:17;;;;;;;26.87;25.27;;;;;;;;;;5022190;28;20452;-80